createdAt,value
2023-06-04T00:02:07.893Z,0.93
2023-06-04T00:04:34.491Z,0.82
2023-06-04T00:07:00.942Z,0.90
2023-06-04T00:09:27.337Z,1.40
2023-06-04T00:11:53.789Z,1.17
2023-06-04T00:14:20.400Z,1.40
2023-06-04T00:16:46.896Z,1.30
2023-06-04T00:19:13.552Z,1.35
2023-06-04T00:21:40.047Z,1.30
2023-06-04T00:24:06.933Z,1.02
2023-06-04T00:26:34.976Z,1.33
2023-06-04T00:29:01.780Z,1.35
2023-06-04T00:31:28.318Z,1.15
2023-06-04T00:33:54.787Z,1.20
2023-06-04T00:36:21.293Z,1.23
2023-06-04T00:38:47.683Z,1.00
2023-06-04T00:41:14.147Z,1.23
2023-06-04T00:43:40.636Z,1.10
2023-06-04T00:46:07.678Z,0.90
2023-06-04T00:48:34.223Z,1.15
2023-06-04T00:51:01.379Z,1.00
2023-06-04T00:53:28.081Z,0.95
2023-06-04T00:55:54.597Z,1.10
2023-06-04T00:58:21.428Z,1.02
2023-06-04T01:00:48.374Z,1.15
2023-06-04T01:03:18.666Z,1.33
2023-06-04T01:05:52.337Z,1.20
2023-06-04T01:08:19.565Z,1.10
2023-06-04T01:10:56.610Z,1.48
2023-06-04T01:13:23.748Z,1.35
2023-06-04T01:15:51.330Z,1.08
2023-06-04T01:18:31.684Z,1.50
2023-06-04T01:21:05.839Z,1.10
2023-06-04T01:23:40.294Z,1.30
2023-06-04T01:26:07.344Z,0.88
2023-06-04T01:28:35.947Z,1.00
2023-06-04T01:31:03.921Z,1.48
2023-06-04T01:33:30.524Z,1.20
2023-06-04T01:35:57.310Z,1.08
2023-06-04T01:38:23.943Z,1.10
2023-06-04T01:40:51.712Z,1.13
2023-06-04T01:43:18.169Z,1.38
2023-06-04T01:45:44.608Z,1.25
2023-06-04T01:48:11.091Z,1.10
2023-06-04T01:50:37.531Z,1.27
2023-06-04T01:53:04.504Z,1.35
2023-06-04T01:55:34.287Z,1.25
2023-06-04T01:58:01.953Z,1.08
2023-06-04T02:00:28.671Z,1.23
2023-06-04T02:02:57.198Z,1.20
2023-06-04T02:05:23.928Z,1.45
2023-06-04T02:07:50.508Z,1.20
2023-06-04T02:10:18.718Z,1.00
2023-06-04T02:13:04.348Z,1.17
2023-06-04T02:15:32.554Z,1.20
2023-06-04T02:18:17.077Z,1.35
2023-06-04T02:20:48.292Z,1.30
2023-06-04T02:23:16.925Z,1.20
2023-06-04T02:25:45.671Z,1.40
2023-06-04T02:28:12.960Z,1.52
2023-06-04T02:30:39.644Z,1.50
2023-06-04T02:33:07.070Z,1.38
2023-06-04T02:35:33.627Z,1.30
2023-06-04T02:38:00.224Z,1.60
2023-06-04T02:40:26.789Z,1.42
2023-06-04T02:42:54.284Z,1.30
2023-06-04T02:45:21.281Z,1.67
2023-06-04T02:47:47.988Z,1.23
2023-06-04T02:50:15.716Z,1.42
2023-06-04T02:52:44.168Z,1.40
2023-06-04T02:55:13.027Z,1.48
2023-06-04T02:57:43.710Z,1.45
2023-06-04T03:00:15.304Z,1.48
2023-06-04T03:02:47.358Z,1.45
2023-06-04T03:05:16.356Z,1.63
2023-06-04T03:07:45.453Z,1.35
2023-06-04T03:10:13.487Z,1.75
2023-06-04T03:12:40.393Z,1.65
2023-06-04T03:15:08.632Z,1.55
2023-06-04T03:17:35.094Z,1.30
2023-06-04T03:20:02.598Z,1.40
2023-06-04T03:22:29.476Z,1.50
2023-06-04T03:24:56.135Z,1.35
2023-06-04T03:27:22.969Z,1.83
2023-06-04T03:29:49.510Z,1.83
2023-06-04T03:32:17.189Z,1.67
2023-06-04T03:34:44.387Z,1.70
2023-06-04T03:37:11.218Z,1.70
2023-06-04T03:39:37.649Z,1.52
2023-06-04T03:42:04.399Z,2.00
2023-06-04T03:44:30.952Z,1.38
2023-06-04T03:46:57.455Z,1.30
2023-06-04T03:49:24.015Z,1.60
2023-06-04T03:51:50.937Z,1.45
2023-06-04T03:54:20.316Z,1.35
2023-06-04T03:56:47.679Z,1.63
2023-06-04T04:01:41.551Z,1.58
2023-06-04T04:04:08.106Z,1.60
2023-06-04T04:06:34.834Z,1.50
2023-06-04T04:09:03.309Z,1.73
2023-06-04T04:11:29.800Z,1.95
2023-06-04T04:13:57.996Z,1.67
2023-06-04T04:16:24.915Z,1.70
2023-06-04T04:18:51.284Z,1.92
2023-06-04T04:21:18.021Z,1.90
2023-06-04T04:23:46.560Z,1.73
2023-06-04T04:26:17.455Z,1.88
2023-06-04T04:28:44.956Z,1.70
2023-06-04T04:31:11.697Z,1.90
2023-06-04T04:33:40.480Z,2.03
2023-06-04T04:36:13.797Z,2.03
2023-06-04T04:41:08.667Z,1.98
2023-06-04T04:43:37.422Z,1.85
2023-06-04T04:46:06.258Z,1.50
2023-06-04T04:48:33.014Z,1.85
2023-06-04T04:50:59.780Z,1.95
2023-06-04T04:53:27.518Z,1.67
2023-06-04T04:55:55.373Z,2.03
2023-06-04T04:58:21.844Z,2.13
2023-06-04T05:00:49.024Z,1.73
2023-06-04T05:03:16.323Z,1.67
2023-06-04T05:05:43.342Z,2.08
2023-06-04T05:08:10.050Z,1.50
2023-06-04T05:10:37.180Z,1.90
2023-06-04T05:13:05.944Z,2.42
2023-06-04T05:15:32.754Z,2.17
2023-06-04T05:18:01.791Z,2.10
2023-06-04T05:20:28.542Z,1.90
2023-06-04T05:22:56.265Z,2.60
2023-06-04T05:25:23.053Z,1.73
2023-06-04T05:27:50.216Z,1.42
2023-06-04T05:30:17.588Z,2.05
2023-06-04T05:35:10.888Z,2.42
2023-06-04T05:37:41.456Z,1.92
2023-06-04T05:40:08.868Z,1.75
2023-06-04T05:42:35.591Z,2.15
2023-06-04T05:45:02.327Z,2.05
2023-06-04T05:47:32.815Z,2.33
2023-06-04T05:49:59.369Z,1.98
2023-06-04T05:52:27.141Z,2.08
2023-06-04T05:54:53.726Z,1.98
2023-06-04T05:57:21.916Z,2.03
2023-06-04T05:59:48.574Z,1.90
2023-06-04T06:02:15.806Z,1.63
2023-06-04T06:07:09.289Z,1.80
2023-06-04T06:09:36.723Z,1.85
2023-06-04T06:12:03.889Z,1.60
2023-06-04T06:14:30.418Z,2.00
2023-06-04T06:16:57.448Z,1.92
2023-06-04T06:19:23.907Z,1.70
2023-06-04T06:21:50.383Z,1.65
2023-06-04T06:24:16.866Z,2.00
2023-06-04T06:26:43.749Z,1.88
2023-06-04T06:29:10.198Z,1.60
2023-06-04T06:31:36.912Z,1.90
2023-06-04T06:34:06.818Z,1.67
2023-06-04T06:36:34.937Z,1.52
2023-06-04T06:39:01.505Z,2.22
2023-06-04T06:41:28.036Z,1.35
2023-06-04T06:43:54.513Z,1.80
2023-06-04T06:46:21.318Z,1.50
2023-06-04T06:48:49.205Z,1.30
2023-06-04T06:51:15.628Z,1.67
2023-06-04T06:53:42.746Z,1.63
2023-06-04T06:56:10.372Z,2.25
2023-06-04T06:58:36.935Z,1.70
2023-06-04T07:01:03.944Z,1.33
2023-06-04T07:03:31.290Z,2.42
2023-06-04T07:05:57.915Z,1.73
2023-06-04T07:08:24.588Z,1.65
2023-06-04T07:10:50.996Z,1.40
2023-06-04T07:13:18.700Z,1.77
2023-06-04T07:15:45.193Z,1.35
2023-06-04T07:18:11.775Z,1.70
2023-06-04T07:20:38.565Z,1.58
2023-06-04T07:23:04.944Z,1.55
2023-06-04T07:25:31.384Z,1.45
2023-06-04T07:27:59.091Z,1.33
2023-06-04T07:30:26.843Z,1.48
2023-06-04T07:32:54.715Z,1.60
2023-06-04T07:35:21.416Z,0.98
2023-06-04T07:37:49.890Z,1.23
2023-06-04T07:40:17.752Z,1.23
2023-06-04T07:42:45.645Z,1.52
2023-06-04T07:45:12.035Z,1.40
2023-06-04T07:47:38.551Z,1.25
2023-06-04T07:50:06.671Z,1.23
2023-06-04T07:52:33.676Z,0.93
2023-06-04T07:55:00.817Z,0.95
2023-06-04T07:59:53.742Z,1.13
2023-06-04T08:02:20.176Z,1.35
2023-06-04T08:04:50.107Z,1.00
2023-06-04T08:07:16.613Z,1.42
2023-06-04T08:09:45.058Z,1.95
2023-06-04T08:12:11.497Z,1.33
2023-06-04T08:14:38.120Z,1.25
2023-06-04T08:17:04.818Z,1.25
2023-06-04T08:19:31.353Z,1.27
2023-06-04T08:21:57.851Z,1.25
2023-06-04T08:24:24.382Z,1.23
2023-06-04T08:26:51.380Z,1.27
2023-06-04T08:29:17.831Z,1.02
2023-06-04T08:31:44.365Z,1.15
2023-06-04T08:34:10.909Z,1.10
2023-06-04T08:36:37.382Z,1.13
2023-06-04T08:39:04.069Z,1.05
2023-06-04T08:41:45.829Z,1.65
2023-06-04T08:44:12.915Z,1.65
2023-06-04T08:46:41.742Z,1.02
2023-06-04T08:49:09.522Z,1.00
2023-06-04T08:51:41.759Z,0.93
2023-06-04T08:54:09.751Z,1.00
2023-06-04T08:56:37.271Z,1.45
2023-06-04T08:59:06.220Z,0.93
2023-06-04T09:01:33.473Z,0.93
2023-06-04T09:04:06.245Z,1.33
2023-06-04T09:09:08.327Z,1.02
2023-06-04T09:11:38.287Z,1.92
2023-06-04T09:14:14.963Z,0.77
2023-06-04T09:16:48.612Z,0.80
2023-06-04T09:19:16.224Z,0.82
2023-06-04T09:21:49.706Z,1.00
2023-06-04T09:24:16.397Z,0.93
2023-06-04T09:26:42.789Z,1.20
2023-06-04T09:29:09.316Z,0.93
2023-06-04T09:31:38.222Z,1.25
2023-06-04T09:34:04.993Z,1.35
2023-06-04T09:36:32.088Z,1.20
2023-06-04T09:38:58.622Z,1.00
2023-06-04T09:41:27.246Z,1.08
2023-06-04T09:44:04.484Z,0.80
2023-06-04T09:46:31.964Z,0.95
2023-06-04T09:49:04.978Z,0.82
2023-06-04T09:54:03.209Z,0.88
2023-06-04T09:56:30.321Z,1.15
2023-06-04T09:59:03.769Z,1.23
2023-06-04T10:01:31.387Z,0.82
2023-06-04T10:04:03.479Z,1.05
2023-06-04T10:06:35.120Z,0.75
2023-06-04T10:09:06.266Z,1.08
2023-06-04T10:11:41.002Z,0.75
2023-06-04T10:14:20.751Z,0.90
2023-06-04T10:16:49.159Z,0.88
2023-06-04T10:19:17.295Z,1.00
2023-06-04T10:21:44.594Z,0.95
2023-06-04T10:24:13.943Z,1.00
2023-06-04T10:26:41.746Z,0.98
2023-06-04T10:29:09.443Z,0.88
2023-06-04T10:31:38.064Z,1.20
2023-06-04T10:34:04.784Z,1.13
2023-06-04T10:36:31.453Z,1.02
2023-06-04T10:38:57.929Z,1.08
2023-06-04T10:41:25.094Z,0.85
2023-06-04T10:43:53.443Z,0.80
2023-06-04T10:46:21.332Z,1.42
2023-06-04T10:48:54.420Z,0.82
2023-06-04T10:51:34.289Z,0.95
2023-06-04T10:54:02.254Z,1.20
2023-06-04T10:56:29.918Z,0.95
2023-06-04T10:58:56.999Z,0.95
2023-06-04T11:01:31.650Z,1.30
2023-06-04T11:03:58.535Z,1.08
2023-06-04T11:06:28.758Z,1.10
2023-06-04T11:09:06.656Z,0.93
2023-06-04T11:11:33.416Z,0.70
2023-06-04T11:16:36.696Z,0.73
2023-06-04T11:19:03.439Z,0.98
2023-06-04T11:21:30.255Z,0.65
2023-06-04T11:23:59.352Z,0.80
2023-06-04T11:26:37.321Z,0.93
2023-06-04T11:29:12.257Z,0.75
2023-06-04T11:31:46.490Z,1.13
2023-06-04T11:34:26.590Z,0.75
2023-06-04T11:36:56.032Z,1.05
2023-06-04T11:39:23.564Z,1.10
2023-06-04T11:41:52.043Z,0.85
2023-06-04T11:44:21.524Z,0.85
2023-06-04T11:46:49.703Z,1.17
2023-06-04T11:49:17.047Z,0.95
2023-06-04T11:51:49.360Z,0.93
2023-06-04T11:54:17.625Z,1.02
2023-06-04T11:56:47.734Z,0.88
2023-06-04T11:59:15.994Z,0.80
2023-06-04T12:01:43.946Z,1.15
2023-06-04T12:04:18.245Z,0.70
2023-06-04T12:06:58.935Z,0.85
2023-06-04T12:09:28.392Z,0.85
2023-06-04T12:12:02.668Z,1.02
2023-06-04T12:14:30.058Z,0.93
2023-06-04T12:16:59.938Z,0.93
2023-06-04T12:19:27.412Z,0.95
2023-06-04T12:22:08.138Z,0.95
2023-06-04T12:24:46.827Z,1.90
2023-06-04T12:27:13.292Z,1.08
2023-06-04T12:29:39.719Z,1.80
2023-06-04T12:32:14.473Z,1.05
2023-06-04T12:34:41.978Z,1.13
2023-06-04T12:37:09.150Z,0.80
2023-06-04T12:39:37.704Z,0.93
2023-06-04T12:42:06.155Z,1.60
2023-06-04T12:44:35.287Z,1.05
2023-06-04T12:47:02.342Z,0.85
2023-06-04T12:49:28.844Z,0.95
2023-06-04T12:51:55.183Z,1.02
2023-06-04T12:54:21.630Z,1.38
2023-06-04T12:56:48.152Z,1.25
2023-06-04T12:59:14.587Z,0.93
2023-06-04T13:01:42.037Z,0.95
2023-06-04T13:04:08.708Z,1.45
2023-06-04T13:09:04.898Z,1.20
2023-06-04T13:11:31.449Z,1.10
2023-06-04T13:13:57.933Z,1.08
2023-06-04T13:16:24.447Z,0.93
2023-06-04T13:18:51.126Z,0.90
2023-06-04T13:21:17.565Z,0.93
2023-06-04T13:23:50.584Z,0.93
2023-06-04T13:26:18.789Z,1.17
2023-06-04T13:28:45.434Z,0.85
2023-06-04T13:31:12.205Z,1.05
2023-06-04T13:36:05.624Z,1.55
2023-06-04T13:38:33.012Z,1.15
2023-06-04T13:40:59.855Z,1.02
2023-06-04T13:43:26.442Z,1.10
2023-06-04T13:45:52.929Z,1.23
2023-06-04T13:48:19.551Z,1.05
2023-06-04T13:50:46.178Z,0.98
2023-06-04T13:53:14.134Z,1.02
2023-06-04T13:55:40.728Z,1.08
2023-06-04T13:58:07.324Z,0.95
2023-06-04T14:00:35.184Z,1.00
2023-06-04T14:03:01.973Z,0.93
2023-06-04T14:05:28.939Z,1.13
2023-06-04T14:07:55.810Z,1.60
2023-06-04T14:10:22.300Z,1.20
2023-06-04T14:12:48.676Z,1.10
2023-06-04T14:15:15.278Z,0.80
2023-06-04T14:17:42.043Z,0.90
2023-06-04T14:20:09.671Z,1.13
2023-06-04T14:22:37.217Z,1.23
2023-06-04T14:25:04.943Z,1.00
2023-06-04T14:27:32.652Z,0.95
2023-06-04T14:29:59.090Z,1.02
2023-06-04T14:32:25.592Z,1.10
2023-06-04T14:34:52.273Z,1.23
2023-06-04T14:37:20.614Z,0.82
2023-06-04T14:39:47.134Z,1.05
2023-06-04T14:42:14.065Z,0.90
2023-06-04T14:44:40.829Z,1.25
2023-06-04T14:49:33.861Z,1.15
2023-06-04T14:52:01.569Z,0.93
2023-06-04T14:54:28.104Z,0.93
2023-06-04T14:56:54.497Z,1.08
2023-06-04T14:59:20.946Z,1.23
2023-06-04T15:01:47.765Z,1.13
2023-06-04T15:04:14.284Z,1.10
2023-06-04T15:06:40.848Z,1.00
2023-06-04T15:09:07.484Z,1.02
2023-06-04T15:11:34.891Z,0.93
2023-06-04T15:14:02.918Z,1.20
2023-06-04T15:16:29.414Z,0.85
2023-06-04T15:18:57.982Z,1.02
2023-06-04T15:21:24.736Z,1.27
2023-06-04T15:23:51.128Z,1.23
2023-06-04T15:26:18.056Z,1.17
2023-06-04T15:28:44.611Z,1.02
2023-06-04T15:31:11.397Z,1.55
2023-06-04T15:33:38.082Z,1.17
2023-06-04T15:36:04.771Z,1.20
2023-06-04T15:38:32.083Z,1.38
2023-06-04T15:40:58.592Z,1.25
2023-06-04T15:43:24.987Z,1.02
2023-06-04T15:45:51.508Z,1.30
2023-06-04T15:48:18.042Z,0.73
2023-06-04T15:50:44.527Z,1.15
2023-06-04T15:53:11.009Z,1.27
2023-06-04T15:55:37.512Z,1.30
2023-06-04T15:58:03.916Z,1.13
2023-06-04T16:00:30.305Z,1.35
2023-06-04T16:02:56.754Z,1.50
2023-06-04T16:05:23.263Z,0.98
2023-06-04T16:07:49.671Z,1.00
2023-06-04T16:10:16.146Z,1.20
2023-06-04T16:12:42.585Z,0.95
2023-06-04T16:15:09.349Z,1.02
2023-06-04T16:17:35.842Z,1.10
2023-06-04T16:20:03.952Z,1.10
2023-06-04T16:22:30.490Z,1.63
2023-06-04T16:24:57.031Z,1.15
2023-06-04T16:27:23.561Z,1.10
2023-06-04T16:29:49.978Z,0.95
2023-06-04T16:32:16.444Z,0.98
2023-06-04T16:34:42.996Z,1.25
2023-06-04T16:37:09.440Z,1.13
2023-06-04T16:39:35.980Z,1.27
2023-06-04T16:42:04.050Z,1.35
2023-06-04T16:44:30.596Z,1.08
2023-06-04T16:46:57.143Z,1.23
2023-06-04T16:49:23.608Z,1.60
2023-06-04T16:51:50.050Z,1.42
2023-06-04T16:54:16.583Z,2.08
2023-06-04T16:56:43.130Z,1.50
2023-06-04T16:59:09.574Z,1.40
2023-06-04T17:01:38.020Z,0.93
2023-06-04T17:04:05.390Z,1.23
2023-06-04T17:06:32.290Z,1.10
2023-06-04T17:11:25.030Z,1.33
2023-06-04T17:13:51.475Z,1.25
2023-06-04T17:16:17.921Z,1.23
2023-06-04T17:18:44.403Z,1.13
2023-06-04T17:21:11.033Z,1.33
2023-06-04T17:23:39.184Z,1.25
2023-06-04T17:26:07.570Z,1.10
2023-06-04T17:28:34.246Z,1.40
2023-06-04T17:31:00.840Z,1.02
2023-06-04T17:33:27.326Z,1.52
2023-06-04T17:35:53.852Z,1.15
2023-06-04T17:38:20.290Z,1.33
2023-06-04T17:40:46.697Z,1.27
2023-06-04T17:43:13.205Z,1.30
2023-06-04T17:45:40.463Z,1.15
2023-06-04T17:48:06.965Z,1.33
2023-06-04T17:50:33.384Z,1.40
2023-06-04T17:53:00.407Z,1.23
2023-06-04T17:57:56.423Z,1.05
2023-06-04T18:00:22.956Z,1.25
2023-06-04T18:02:49.401Z,1.42
2023-06-04T18:05:16.028Z,1.15
2023-06-04T18:07:42.450Z,1.58
2023-06-04T18:10:09.331Z,1.27
2023-06-04T18:12:36.491Z,1.10
2023-06-04T18:15:03.705Z,1.77
2023-06-04T18:17:30.293Z,1.23
2023-06-04T18:19:56.754Z,1.20
2023-06-04T18:22:23.376Z,1.33
2023-06-04T18:24:51.126Z,0.93
2023-06-04T18:27:18.920Z,1.13
2023-06-04T18:29:46.797Z,1.17
2023-06-04T18:32:13.397Z,1.33
2023-06-04T18:34:39.838Z,1.15
2023-06-04T18:37:07.040Z,1.02
2023-06-04T18:39:33.484Z,1.13
2023-06-04T18:42:01.693Z,1.13
2023-06-04T18:44:29.149Z,1.13
2023-06-04T18:46:55.659Z,1.20
2023-06-04T18:49:22.980Z,1.45
2023-06-04T18:51:51.573Z,1.08
2023-06-04T18:54:18.681Z,1.05
2023-06-04T18:59:15.022Z,1.67
2023-06-04T19:01:41.877Z,1.30
2023-06-04T19:04:09.014Z,1.20
2023-06-04T19:09:02.993Z,1.13
2023-06-04T19:11:29.517Z,1.67
2023-06-04T19:13:56.484Z,1.50
2023-06-04T19:16:23.118Z,1.08
2023-06-04T19:18:49.792Z,1.25
2023-06-04T19:21:16.953Z,1.23
2023-06-04T19:23:44.344Z,1.25
2023-06-04T19:26:11.000Z,1.55
2023-06-04T19:28:38.940Z,1.55
2023-06-04T19:31:05.638Z,1.30
2023-06-04T19:33:33.578Z,1.02
2023-06-04T19:36:00.924Z,1.40
2023-06-04T19:38:27.297Z,1.88
2023-06-04T19:40:53.736Z,1.42
2023-06-04T19:43:21.450Z,1.13
2023-06-04T19:45:50.411Z,1.10
2023-06-04T19:48:16.942Z,1.30
2023-06-04T19:50:43.334Z,1.20
2023-06-04T19:53:09.866Z,1.33
2023-06-04T19:55:36.407Z,1.35
2023-06-04T19:58:02.815Z,1.55
2023-06-04T20:00:29.312Z,1.35
2023-06-04T20:02:56.059Z,1.67
2023-06-04T20:05:23.317Z,2.00
2023-06-04T20:07:50.143Z,1.92
2023-06-04T20:10:19.006Z,1.77
2023-06-04T20:12:45.957Z,1.52
2023-06-04T20:15:12.474Z,1.38
2023-06-04T20:17:39.166Z,1.25
2023-06-04T20:20:07.302Z,1.35
2023-06-04T20:22:34.136Z,1.42
2023-06-04T20:25:01.346Z,1.83
2023-06-04T20:27:28.238Z,1.40
2023-06-04T20:29:54.628Z,1.55
2023-06-04T20:32:22.917Z,1.40
2023-06-04T20:34:49.638Z,1.38
2023-06-04T20:37:16.452Z,1.52
2023-06-04T20:39:48.330Z,1.48
2023-06-04T20:42:14.903Z,1.70
2023-06-04T20:44:41.515Z,1.67
2023-06-04T20:47:08.218Z,1.77
2023-06-04T20:49:34.637Z,1.45
2023-06-04T20:52:01.404Z,1.85
2023-06-04T20:54:27.835Z,1.55
2023-06-04T20:56:54.330Z,1.58
2023-06-04T20:59:20.838Z,1.73
2023-06-04T21:01:48.911Z,1.75
2023-06-04T21:04:15.506Z,1.58
2023-06-04T21:06:42.424Z,2.05
2023-06-04T21:09:08.892Z,1.48
2023-06-04T21:11:35.422Z,2.05
2023-06-04T21:14:02.025Z,1.55
2023-06-04T21:16:28.529Z,1.70
2023-06-04T21:18:54.996Z,1.88
2023-06-04T21:21:21.545Z,1.70
2023-06-04T21:23:47.955Z,1.65
2023-06-04T21:26:14.417Z,1.55
2023-06-04T21:28:40.928Z,1.63
2023-06-04T21:31:07.549Z,1.77
2023-06-04T21:33:34.537Z,2.35
2023-06-04T21:36:01.020Z,2.00
2023-06-04T21:38:28.159Z,1.63
2023-06-04T21:43:21.746Z,1.92
2023-06-04T21:45:48.927Z,1.85
2023-06-04T21:48:15.553Z,1.77
2023-06-04T21:50:42.006Z,1.90
2023-06-04T21:53:08.427Z,2.28
2023-06-04T21:55:36.678Z,2.00
2023-06-04T21:58:04.490Z,1.83
2023-06-04T22:00:31.159Z,1.70
2023-06-04T22:02:57.779Z,2.63
2023-06-04T22:05:24.417Z,2.35
2023-06-04T22:07:50.808Z,2.42
2023-06-04T22:10:17.379Z,1.92
2023-06-04T22:12:44.790Z,2.22
2023-06-04T22:15:11.489Z,2.05
2023-06-04T22:17:38.114Z,2.17
2023-06-04T22:20:05.101Z,2.45
2023-06-04T22:22:31.563Z,1.92
2023-06-04T22:24:58.087Z,2.10
2023-06-04T22:27:24.472Z,2.22
2023-06-04T22:29:51.310Z,2.13
2023-06-04T22:32:17.713Z,1.92
2023-06-04T22:34:46.230Z,2.10
2023-06-04T22:37:12.781Z,2.45
2023-06-04T22:39:39.195Z,2.00
2023-06-04T22:42:05.923Z,2.00
2023-06-04T22:44:32.339Z,2.15
2023-06-04T22:46:58.862Z,2.67
2023-06-04T22:49:25.560Z,2.30
2023-06-04T22:51:52.045Z,2.10
2023-06-04T22:54:18.978Z,2.45
2023-06-04T22:56:45.518Z,2.63
2023-06-04T22:59:11.996Z,2.35
2023-06-04T23:01:38.460Z,2.60
2023-06-04T23:04:05.237Z,2.67
2023-06-04T23:06:32.068Z,2.40
2023-06-04T23:08:58.531Z,2.13
2023-06-04T23:11:24.934Z,2.58
2023-06-04T23:13:51.656Z,2.38
2023-06-04T23:16:18.047Z,2.50
2023-06-04T23:18:44.556Z,2.42
2023-06-04T23:21:11.082Z,2.53
2023-06-04T23:23:37.620Z,2.38
2023-06-04T23:26:04.390Z,2.40
2023-06-04T23:28:30.873Z,2.50
2023-06-04T23:30:57.260Z,2.47
2023-06-04T23:33:23.656Z,2.30
2023-06-04T23:35:50.510Z,2.25
2023-06-04T23:38:17.041Z,2.70
2023-06-04T23:40:43.453Z,2.55
2023-06-04T23:43:10.045Z,2.50
2023-06-04T23:45:36.581Z,2.67
2023-06-04T23:48:03.101Z,2.53
2023-06-04T23:50:29.544Z,2.47
2023-06-04T23:52:56.258Z,2.85
2023-06-04T23:55:22.750Z,2.83
2023-06-04T23:57:49.303Z,2.70
